Izmir/Cumaovasi, Turkey
Current Conditions -  °F | °C
As of 7:50 PM on Friday 31 Oct 2014 (Local Time) from LTBJ Reporting Station
Few Clouds Few Clouds  
Wind Chill: 55°   Ceiling: Unl
Heat Index: 55°   Visibility: 6mi
Dew Point: 45°   Wind: 13mph
Humidity: 67%   Direction: 10°N
Pressure: 30"   Gusts: NA
Location:  38.21°N, 27.17°E
Report Text: LTBJ 311650Z 01011KT 9999 FEW030 13/07 Q1016 NOSIG
Loading
Personal Weather Stations






























Interactive Weather Map
Tropical Storm Tracking
New forecast layout! Learn more

10-Day Weather Forecast

Advertisements
Track Severe Weather on mobile